Terminal Aerodrome Forecast
Issued by NWS

Home | Current Version | Previous Version | Text Only | Print | Product List | Glossary On
Versions: 1 2 3 4 5 6 7 8 9 10 11 12 13 14 15 16 17 18 19 20 21 22 23 24 25 26 27 28 29 30 31 32 33
000
FTUS45 KSLC 190540
TAFENV
TAF
KENV 190540Z 1906/2006 33010KT P6SM VCSH SCT020 BKN040
      TEMPO 1906/1909 02010G15KT 2SM -SN BR BKN015 OVC030
     FM191100 32017G27KT P6SM SCT030 BKN070
     FM200300 33011KT P6SM SCT070 BKN100=

USA.gov is the U.S. government's official web portal to all federal, state and local government web resources and services.